Time;durP1;ratioP1;P1;durP2;ratioP2;P2;SDS_P1;SDS_P2;PMS_P1;PMS_P2;Temp;Humidity;BMP_temperature;BMP_pressure;BME280_temperature;BME280_humidity;BME280_pressure;Samples;Min_cycle;Max_cycle;Signal;HPM_P1;HPM_P2
2022/01/22 00:00:50;;;;;;;25.00;2.10;;;5.90;99.90;;;;;;5097354;28;20054;-76
2022/01/22 00:03:16;;;;;;;26.42;2.70;;;5.90;99.90;;;;;;5097783;28;20054;-76
2022/01/22 00:05:42;;;;;;;30.38;2.10;;;5.90;99.90;;;;;;5114222;28;20457;-76
2022/01/22 00:08:08;;;;;;;23.02;2.40;;;5.90;99.90;;;;;;5096471;28;20051;-76
2022/01/22 00:10:34;;;;;;;32.00;2.57;;;5.80;99.90;;;;;;5096800;28;20051;-78
2022/01/22 00:15:28;;;;;;;26.55;2.55;;;5.90;99.90;;;;;;5116153;28;20055;-74
2022/01/22 00:17:55;;;;;;;32.78;2.58;;;5.90;99.90;;;;;;5117783;28;20055;-76
2022/01/22 00:20:23;;;;;;;30.02;1.73;;;5.90;99.90;;;;;;5115687;28;20044;-75
2022/01/22 00:22:50;;;;;;;29.60;2.38;;;5.90;99.90;;;;;;5115566;28;20122;-75
2022/01/22 00:25:18;;;;;;;31.27;2.75;;;5.90;99.90;;;;;;5115530;28;20116;-76
2022/01/22 00:27:45;;;;;;;26.52;2.40;;;5.90;99.90;;;;;;5095954;28;20147;-74
2022/01/22 00:30:15;;;;;;;33.33;2.90;;;5.80;99.90;;;;;;5096837;28;20372;-75
2022/01/22 00:32:41;;;;;;;27.67;2.35;;;5.90;99.90;;;;;;5116344;28;20413;-75
2022/01/22 00:35:08;;;;;;;26.92;2.88;;;5.80;99.90;;;;;;5117026;28;20079;-75
2022/01/22 00:37:39;;;;;;;34.95;3.00;;;5.90;99.90;;;;;;5116529;28;20043;-74
2022/01/22 00:40:06;;;;;;;23.58;2.08;;;5.90;99.90;;;;;;5114443;28;20091;-75
2022/01/22 00:42:33;;;;;;;24.63;2.38;;;5.90;99.90;;;;;;5114259;28;20047;-74
2022/01/22 00:44:59;;;;;;;24.30;2.08;;;6.00;99.90;;;;;;5095869;28;20112;-74
2022/01/22 00:47:26;;;;;;;31.65;3.30;;;5.90;99.90;;;;;;5114102;28;20051;-76
2022/01/22 00:49:53;;;;;;;24.13;2.22;;;5.90;99.90;;;;;;5096200;28;20063;-76
2022/01/22 00:52:19;;;;;;;35.47;3.78;;;5.90;99.90;;;;;;5114946;28;20051;-76
2022/01/22 00:54:44;;;;;;;36.35;3.65;;;5.90;99.90;;;;;;5096728;28;20039;-75
2022/01/22 00:57:10;;;;;;;35.83;2.67;;;5.90;99.90;;;;;;5114642;28;20459;-76
2022/01/22 00:59:37;;;;;;;35.45;2.47;;;5.90;99.90;;;;;;5099242;28;20105;-76
2022/01/22 01:02:05;;;;;;;29.63;2.42;;;5.90;99.90;;;;;;5120373;28;20043;-76
2022/01/22 01:04:34;;;;;;;33.83;1.77;;;5.90;99.90;;;;;;5122043;28;20097;-75
2022/01/22 01:07:01;;;;;;;25.30;1.88;;;6.00;99.90;;;;;;5104316;28;20046;-75
2022/01/22 01:09:26;;;;;;;32.40;2.35;;;6.00;99.90;;;;;;5087412;28;20048;-75
2022/01/22 01:11:58;;;;;;;27.42;2.42;;;6.00;99.90;;;;;;5119661;28;20051;-76
2022/01/22 01:14:30;;;;;;;25.25;2.42;;;6.00;99.90;;;;;;5119944;28;20067;-74
2022/01/22 01:35:45;;;;;;;26.27;2.17;;;6.10;99.90;;;;;;5096517;28;20153;-74
2022/01/22 01:38:11;;;;;;;28.20;2.30;;;6.10;99.90;;;;;;5113970;28;20048;-75
2022/01/22 01:40:41;;;;;;;26.67;3.13;;;6.00;99.90;;;;;;5114611;28;20391;-77
2022/01/22 01:43:19;;;;;;;32.83;1.80;;;6.10;99.90;;;;;;5117088;28;20077;-76
2022/01/22 01:45:44;;;;;;;21.58;2.38;;;6.10;99.90;;;;;;5116636;28;20050;-75
2022/01/22 01:48:16;;;;;;;19.98;1.67;;;6.10;99.90;;;;;;5098570;28;20122;-75
2022/01/22 01:50:43;;;;;;;24.83;2.03;;;6.10;99.90;;;;;;5117567;28;20054;-75
2022/01/22 01:57:26;;;;;;;31.45;1.95;;;6.10;99.90;;;;;;5080932;28;20084;-74
2022/01/22 01:58:55;;;;;;;21.63;1.65;;;6.10;99.90;;;;;;5115014;28;20043;-75
2022/01/22 02:01:21;;;;;;;17.35;1.83;;;6.10;99.90;;;;;;5114390;28;20097;-76
2022/01/22 02:03:46;;;;;;;21.77;1.58;;;6.10;99.90;;;;;;5113133;28;20047;-75
2022/01/22 02:06:12;;;;;;;24.25;2.38;;;6.20;99.90;;;;;;5113352;28;20353;-76
2022/01/22 02:08:39;;;;;;;26.45;1.98;;;6.20;99.90;;;;;;5094676;28;20071;-75
2022/01/22 02:11:06;;;;;;;21.50;1.98;;;6.20;99.90;;;;;;5112664;28;20044;-76
2022/01/22 02:24:49;;;;;;;23.38;1.85;;;6.20;99.90;;;;;;5112849;28;20087;-75
2022/01/22 02:27:16;;;;;;;25.52;1.83;;;6.20;99.90;;;;;;5112564;28;20047;-74
2022/01/22 02:29:41;;;;;;;26.83;1.73;;;6.20;99.90;;;;;;5094424;28;20461;-76
2022/01/22 02:35:09;;;;;;;31.75;2.45;;;6.20;99.90;;;;;;5113810;28;20448;-75
2022/01/22 02:37:39;;;;;;;21.08;2.67;;;6.20;99.90;;;;;;5094201;28;20043;-74
2022/01/22 02:40:14;;;;;;;25.40;2.10;;;6.20;99.90;;;;;;5112858;28;20047;-75
2022/01/22 02:42:39;;;;;;;22.83;2.67;;;6.20;99.90;;;;;;5079485;28;20048;-74
2022/01/22 02:45:09;;;;;;;23.58;3.00;;;6.30;99.90;;;;;;5112558;28;20521;-76
2022/01/22 02:47:35;;;;;;;22.35;2.67;;;6.30;99.90;;;;;;5112225;28;20225;-75
2022/01/22 02:50:03;;;;;;;21.30;1.80;;;6.30;99.90;;;;;;5110911;28;20071;-75
2022/01/22 02:52:28;;;;;;;22.55;2.33;;;6.30;99.90;;;;;;5097012;28;20467;-77
2022/01/22 02:54:55;;;;;;;21.38;2.15;;;6.30;99.90;;;;;;5081781;28;20079;-74
2022/01/22 02:57:21;;;;;;;19.85;1.50;;;6.40;99.90;;;;;;5081534;28;20138;-75
2022/01/22 02:59:47;;;;;;;17.88;1.40;;;6.40;99.90;;;;;;5115945;28;20503;-75
2022/01/22 03:02:14;;;;;;;13.73;1.52;;;6.40;99.90;;;;;;5080860;28;20091;-75
2022/01/22 03:04:41;;;;;;;25.07;1.57;;;6.30;99.90;;;;;;5116098;28;20050;-75
2022/01/22 03:07:07;;;;;;;12.15;1.02;;;6.40;99.90;;;;;;5116122;28;20285;-77
2022/01/22 03:09:40;;;;;;;11.77;0.93;;;6.40;99.90;;;;;;5097814;28;20048;-75
2022/01/22 03:20:07;;;;;;;17.05;0.98;;;6.40;99.90;;;;;;5116367;28;20395;-75
2022/01/22 03:27:48;;;;;;;10.35;1.33;;;6.40;99.90;;;;;;5115799;28;20333;-76
2022/01/22 03:30:13;;;;;;;9.73;1.25;;;6.30;99.90;;;;;;5098207;28;20048;-76
2022/01/22 03:32:43;;;;;;;17.73;1.40;;;6.30;99.90;;;;;;5097375;28;20391;-75
2022/01/22 03:35:23;;;;;;;16.30;1.17;;;6.30;99.90;;;;;;5096974;28;20083;-77
2022/01/22 03:37:52;;;;;;;15.02;1.38;;;6.30;99.90;;;;;;5097725;28;20047;-76
2022/01/22 03:40:21;;;;;;;12.43;1.40;;;6.30;99.90;;;;;;5115897;28;20051;-77
2022/01/22 03:42:48;;;;;;;11.98;1.38;;;6.30;99.90;;;;;;5097199;28;20044;-76
2022/01/22 03:45:14;;;;;;;15.70;1.50;;;6.20;99.90;;;;;;5081703;28;20044;-75
2022/01/22 03:47:40;;;;;;;18.60;1.65;;;6.20;99.90;;;;;;5113902;28;20040;-74
2022/01/22 03:50:08;;;;;;;14.45;1.80;;;6.30;99.90;;;;;;5115082;28;20138;-74
2022/01/22 03:52:34;;;;;;;12.32;1.67;;;6.20;99.90;;;;;;5080056;28;20047;-74
2022/01/22 03:55:01;;;;;;;12.45;1.80;;;6.20;99.90;;;;;;5113728;28;20373;-75
2022/01/22 03:57:26;;;;;;;12.48;1.27;;;6.30;99.90;;;;;;5114761;28;20040;-76
2022/01/22 03:59:55;;;;;;;16.40;1.42;;;6.20;99.90;;;;;;5080592;28;20043;-74
2022/01/22 04:04:52;;;;;;;13.90;1.38;;;6.20;99.90;;;;;;5097491;28;20052;-74
2022/01/22 04:10:06;;;;;;;9.65;1.20;;;6.30;99.90;;;;;;5115226;28;20086;-74
2022/01/22 04:12:54;;;;;;;13.43;1.05;;;6.20;99.90;;;;;;5115311;28;20339;-74
2022/01/22 04:15:23;;;;;;;12.77;0.75;;;6.20;99.90;;;;;;5079656;28;20050;-75
2022/01/22 04:25:54;;;;;;;9.63;0.80;;;6.20;99.90;;;;;;5095997;28;20466;-75
2022/01/22 04:28:20;;;;;;;7.70;1.25;;;6.20;99.90;;;;;;5113520;28;20372;-77
2022/01/22 04:30:46;;;;;;;9.48;1.40;;;6.20;99.90;;;;;;5096087;28;20043;-76
2022/01/22 04:33:12;;;;;;;7.22;0.68;;;6.20;99.90;;;;;;5079132;28;20055;-75
2022/01/22 04:35:37;;;;;;;8.80;0.77;;;6.20;99.90;;;;;;5079536;28;20040;-76
2022/01/22 04:38:04;;;;;;;7.10;0.70;;;6.20;99.90;;;;;;5112601;28;20052;-76
2022/01/22 04:40:29;;;;;;;6.82;0.55;;;6.20;99.90;;;;;;5113572;28;20134;-75
2022/01/22 04:42:56;;;;;;;7.15;0.80;;;6.10;99.90;;;;;;5112626;28;20123;-76
2022/01/22 04:55:48;;;;;;;6.38;0.80;;;6.20;99.90;;;;;;5102501;28;20100;-74
2022/01/22 04:58:14;;;;;;;8.43;0.82;;;6.20;99.90;;;;;;5095963;28;20444;-75
2022/01/22 05:00:42;;;;;;;6.50;0.70;;;6.20;99.90;;;;;;5112675;28;20134;-75
2022/01/22 05:03:09;;;;;;;8.05;0.70;;;6.20;99.90;;;;;;5096195;28;20051;-75
2022/01/22 05:05:35;;;;;;;8.90;0.73;;;6.20;99.90;;;;;;5096149;28;20047;-75
2022/01/22 05:08:01;;;;;;;8.23;0.70;;;6.20;99.90;;;;;;5095543;28;20490;-75
2022/01/22 05:10:27;;;;;;;6.43;0.90;;;6.20;99.90;;;;;;5078804;28;20067;-75
2022/01/22 05:12:53;;;;;;;11.10;0.70;;;6.10;99.90;;;;;;5113967;28;20440;-76
2022/01/22 05:15:20;;;;;;;7.68;0.60;;;6.10;99.90;;;;;;5112247;28;20082;-76
2022/01/22 05:17:47;;;;;;;8.25;0.93;;;6.10;99.90;;;;;;5113143;28;20047;-74
2022/01/22 05:20:22;;;;;;;11.27;1.02;;;6.10;99.90;;;;;;5096056;28;20048;-76
2022/01/22 05:25:39;;;;;;;8.27;0.85;;;6.10;99.90;;;;;;5095524;28;20142;-76
2022/01/22 05:38:22;;;;;;;12.52;0.95;;;6.10;99.90;;;;;;5113490;28;20098;-77
2022/01/22 05:40:48;;;;;;;7.93;0.80;;;6.10;99.90;;;;;;5094934;28;20054;-75
2022/01/22 05:43:14;;;;;;;9.15;0.75;;;6.10;99.90;;;;;;5112352;28;20130;-76
2022/01/22 05:45:41;;;;;;;8.90;0.90;;;6.10;99.90;;;;;;5078359;28;20109;-76
2022/01/22 05:48:07;;;;;;;8.15;0.90;;;6.10;99.90;;;;;;5112838;28;20040;-75
2022/01/22 05:50:48;;;;;;;8.98;0.90;;;6.10;99.90;;;;;;5094381;28;20109;-77
2022/01/22 05:53:47;;;;;;;8.07;0.77;;;6.10;99.90;;;;;;5094624;28;20090;-76
2022/01/22 06:01:19;;;;;;;9.07;1.10;;;6.10;99.90;;;;;;5112210;28;20062;-75
2022/01/22 06:03:46;;;;;;;9.57;0.97;;;6.10;99.90;;;;;;5112843;28;20048;-76
2022/01/22 06:06:13;;;;;;;9.10;1.10;;;6.10;99.90;;;;;;5113555;28;20664;-76
2022/01/22 06:08:46;;;;;;;13.95;1.27;;;6.10;99.90;;;;;;5077993;28;20468;-76
2022/01/22 06:11:12;;;;;;;10.68;1.05;;;6.10;99.90;;;;;;5077661;28;20058;-75
2022/01/22 06:13:44;;;;;;;10.53;1.33;;;6.10;99.90;;;;;;5113559;28;20046;-76
2022/01/22 06:16:15;;;;;;;17.85;1.80;;;6.10;99.90;;;;;;5095217;28;20218;-76
2022/01/22 06:18:41;;;;;;;14.73;1.98;;;6.10;99.90;;;;;;5077889;28;20594;-75
2022/01/22 06:21:09;;;;;;;15.77;2.10;;;6.10;99.90;;;;;;5111180;28;20035;-76
2022/01/22 06:23:36;;;;;;;21.73;2.30;;;6.10;99.90;;;;;;5112666;28;20048;-76
2022/01/22 06:26:03;;;;;;;30.40;2.50;;;6.10;99.90;;;;;;5078367;28;20092;-76
2022/01/22 06:28:29;;;;;;;19.00;1.58;;;6.10;99.90;;;;;;5098165;28;20054;-77
2022/01/22 06:30:58;;;;;;;19.48;1.85;;;6.10;99.90;;;;;;5099324;28;20047;-75
2022/01/22 06:33:24;;;;;;;15.40;2.05;;;6.10;99.90;;;;;;5098622;28;20467;-76
2022/01/22 06:35:50;;;;;;;15.20;2.35;;;6.10;99.90;;;;;;5098354;28;20479;-76
2022/01/22 06:38:17;;;;;;;24.35;2.50;;;6.10;99.90;;;;;;5115503;28;20070;-76
2022/01/22 06:43:28;;;;;;;22.08;1.70;;;6.10;99.90;;;;;;5117502;28;20048;-78
2022/01/22 06:45:54;;;;;;;16.48;1.50;;;6.10;99.90;;;;;;5081554;28;20055;-76
2022/01/22 06:48:20;;;;;;;13.32;1.38;;;6.10;99.90;;;;;;5116696;28;20143;-76
2022/01/22 06:50:46;;;;;;;16.75;1.40;;;6.10;99.90;;;;;;5116837;28;20066;-76
2022/01/22 06:53:12;;;;;;;13.02;1.95;;;6.10;99.90;;;;;;5098270;28;20471;-76
2022/01/22 06:55:44;;;;;;;20.92;2.00;;;6.10;99.90;;;;;;5080952;28;20139;-77
2022/01/22 06:58:10;;;;;;;18.67;1.70;;;6.20;99.90;;;;;;5116904;28;20043;-74
2022/01/22 07:00:37;;;;;;;15.57;1.40;;;6.20;99.90;;;;;;5080863;28;20108;-76
2022/01/22 07:03:03;;;;;;;15.63;1.48;;;6.10;99.90;;;;;;5081960;28;20059;-77
2022/01/22 07:05:29;;;;;;;15.13;1.77;;;6.10;99.90;;;;;;5116806;28;20086;-77
2022/01/22 07:07:55;;;;;;;15.65;2.05;;;6.10;99.90;;;;;;5099735;28;20089;-76
2022/01/22 07:10:21;;;;;;;17.20;1.48;;;6.10;99.90;;;;;;5099606;28;20059;-76
2022/01/22 07:12:47;;;;;;;13.63;1.13;;;6.10;99.90;;;;;;5098752;28;20044;-74
2022/01/22 07:15:12;;;;;;;10.27;1.23;;;6.10;99.90;;;;;;5098357;28;20058;-76
2022/01/22 07:17:40;;;;;;;10.98;1.45;;;6.10;99.90;;;;;;5081855;28;20104;-75
2022/01/22 07:20:15;;;;;;;9.52;1.05;;;6.10;99.90;;;;;;5082038;28;20222;-75
2022/01/22 07:25:27;;;;;;;7.10;1.00;;;6.10;99.90;;;;;;5119014;28;20087;-75
2022/01/22 07:27:52;;;;;;;10.65;1.00;;;6.10;99.90;;;;;;5116030;28;20035;-76
2022/01/22 07:30:19;;;;;;;7.40;0.80;;;6.10;99.90;;;;;;5080589;28;20052;-76
2022/01/22 07:32:45;;;;;;;11.23;0.83;;;6.10;99.90;;;;;;5098620;28;20329;-79
2022/01/22 07:35:19;;;;;;;9.30;1.17;;;6.10;99.90;;;;;;5097629;28;20063;-76
2022/01/22 07:37:45;;;;;;;7.57;0.88;;;6.10;99.90;;;;;;5115227;28;20090;-77
2022/01/22 07:40:11;;;;;;;11.10;1.10;;;6.00;99.90;;;;;;5079113;28;20059;-78
2022/01/22 07:42:39;;;;;;;12.43;1.30;;;6.00;99.90;;;;;;5096187;28;20050;-77
2022/01/22 07:45:06;;;;;;;10.65;0.98;;;6.00;99.90;;;;;;5099662;28;20381;-77
2022/01/22 07:47:31;;;;;;;9.25;1.15;;;6.00;99.90;;;;;;5121569;28;20110;-76
2022/01/22 07:49:58;;;;;;;9.35;1.08;;;6.00;99.90;;;;;;5115010;28;20079;-76
2022/01/22 07:52:23;;;;;;;7.95;1.13;;;6.00;99.90;;;;;;5113175;28;20484;-77
2022/01/22 07:54:50;;;;;;;9.75;1.05;;;6.00;99.90;;;;;;5096998;28;20176;-77
2022/01/22 07:57:16;;;;;;;5.10;0.98;;;6.00;99.90;;;;;;5096613;28;20040;-79
2022/01/22 07:59:42;;;;;;;9.57;0.80;;;6.00;99.90;;;;;;5079686;28;20054;-76
2022/01/22 08:02:08;;;;;;;10.55;0.80;;;6.00;99.90;;;;;;5079504;28;20487;-76
2022/01/22 08:04:34;;;;;;;11.27;0.93;;;6.00;99.90;;;;;;5095819;28;20056;-77
2022/01/22 08:07:03;;;;;;;8.18;0.90;;;6.00;99.90;;;;;;5113117;28;20104;-76
2022/01/22 08:09:29;;;;;;;5.85;0.95;;;6.00;99.90;;;;;;5113827;28;20043;-77
2022/01/22 08:11:55;;;;;;;8.25;0.80;;;6.00;99.90;;;;;;5096864;28;20122;-75
2022/01/22 08:14:21;;;;;;;6.60;1.00;;;6.00;99.90;;;;;;5079981;28;20142;-77
2022/01/22 08:16:49;;;;;;;5.72;1.08;;;5.90;99.90;;;;;;5115627;28;20097;-76
2022/01/22 08:19:16;;;;;;;10.07;1.88;;;5.90;99.90;;;;;;5114444;28;20123;-79
2022/01/22 08:21:43;;;;;;;9.77;1.20;;;5.90;99.90;;;;;;5115488;28;20133;-76
2022/01/22 08:24:10;;;;;;;10.77;1.05;;;5.90;99.90;;;;;;5097173;28;20047;-76
2022/01/22 08:26:40;;;;;;;13.20;1.73;;;5.90;99.90;;;;;;5098046;28;20544;-76
2022/01/22 08:29:06;;;;;;;8.73;0.82;;;5.90;99.90;;;;;;5115014;28;20050;-76
2022/01/22 08:36:48;;;;;;;9.20;1.30;;;5.90;99.90;;;;;;5096324;28;20388;-75
2022/01/22 08:39:17;;;;;;;4.40;0.80;;;5.90;99.90;;;;;;5048761;28;1247654;-77
2022/01/22 08:41:44;;;;;;;9.30;1.17;;;5.90;99.90;;;;;;5095387;28;20044;-76
2022/01/22 08:44:11;;;;;;;8.38;1.00;;;5.90;99.90;;;;;;5076587;28;20055;-76
2022/01/22 08:46:37;;;;;;;9.63;0.80;;;5.90;99.90;;;;;;5075551;28;20253;-76
2022/01/22 08:49:05;;;;;;;10.83;1.17;;;6.00;99.90;;;;;;5092396;28;20056;-77
2022/01/22 08:51:33;;;;;;;5.78;0.70;;;6.00;99.90;;;;;;5095079;28;20063;-76
2022/01/22 08:54:09;;;;;;;8.30;0.82;;;6.00;99.90;;;;;;5094142;28;20043;-76
2022/01/22 08:56:37;;;;;;;7.85;0.77;;;6.00;99.90;;;;;;5093124;28;20044;-76
2022/01/22 08:59:03;;;;;;;8.82;0.93;;;6.00;99.90;;;;;;5094728;28;20047;-76
2022/01/22 09:01:29;;;;;;;10.60;1.15;;;6.00;99.90;;;;;;5093050;28;20101;-76
2022/01/22 09:03:54;;;;;;;8.57;1.30;;;6.10;99.90;;;;;;5094302;28;20440;-78
2022/01/22 09:06:21;;;;;;;10.65;1.30;;;6.10;99.90;;;;;;5093294;28;20062;-76
2022/01/22 09:08:50;;;;;;;8.38;1.15;;;6.10;99.90;;;;;;5093304;28;20052;-75
2022/01/22 09:11:18;;;;;;;10.45;2.33;;;6.10;99.90;;;;;;5075990;28;20047;-74
2022/01/22 09:13:43;;;;;;;11.00;1.27;;;6.10;99.90;;;;;;5092209;28;20130;-75
2022/01/22 09:16:09;;;;;;;11.60;2.00;;;6.20;99.90;;;;;;5075289;28;20223;-75
2022/01/22 09:18:35;;;;;;;14.15;2.10;;;6.20;99.90;;;;;;5092482;28;20142;-75
2022/01/22 09:21:04;;;;;;;19.20;2.80;;;6.20;99.90;;;;;;5097229;28;20052;-74
2022/01/22 09:23:32;;;;;;;17.88;2.13;;;6.20;99.90;;;;;;5096541;28;20052;-76
2022/01/22 09:25:59;;;;;;;8.07;2.10;;;6.30;99.90;;;;;;5097042;28;20046;-75
2022/01/22 09:28:27;;;;;;;12.52;1.60;;;6.20;99.90;;;;;;5094434;28;20130;-75
2022/01/22 09:30:53;;;;;;;17.30;2.90;;;6.20;99.90;;;;;;5097964;28;20047;-75
2022/01/22 09:33:19;;;;;;;16.60;2.03;;;6.20;99.90;;;;;;5100812;28;20449;-76
2022/01/22 09:35:45;;;;;;;12.43;1.80;;;6.20;99.90;;;;;;5081693;28;20134;-74
2022/01/22 09:38:11;;;;;;;18.83;1.73;;;6.30;99.90;;;;;;5103171;28;20075;-75
2022/01/22 09:40:37;;;;;;;14.88;1.52;;;6.30;99.90;;;;;;5101868;28;20457;-76
2022/01/22 09:43:03;;;;;;;15.10;1.67;;;6.30;99.90;;;;;;5103239;28;20040;-75
2022/01/22 09:45:30;;;;;;;16.50;1.63;;;6.40;99.90;;;;;;5084896;28;20062;-76
2022/01/22 09:47:59;;;;;;;14.45;1.63;;;6.40;99.90;;;;;;5102711;28;20044;-76
2022/01/22 09:50:26;;;;;;;20.77;1.92;;;6.40;99.90;;;;;;5119696;28;20074;-76
2022/01/22 09:52:52;;;;;;;10.52;1.80;;;6.50;99.90;;;;;;5102914;28;20116;-74
2022/01/22 09:55:18;;;;;;;9.93;1.42;;;6.40;99.90;;;;;;5102190;28;20043;-75
2022/01/22 09:57:45;;;;;;;10.73;1.35;;;6.40;99.90;;;;;;5084339;28;20043;-76
2022/01/22 10:00:13;;;;;;;12.80;2.10;;;6.40;99.90;;;;;;5118503;28;20101;-75
2022/01/22 10:02:50;;;;;;;15.35;2.10;;;6.50;99.90;;;;;;5118826;28;20048;-75
2022/01/22 10:05:36;;;;;;;9.32;2.05;;;6.50;99.90;;;;;;5101229;28;20122;-76
2022/01/22 10:08:38;;;;;;;10.93;2.10;;;6.40;99.90;;;;;;5100892;28;20040;-75
2022/01/22 10:11:16;;;;;;;14.88;1.75;;;6.40;99.90;;;;;;5100004;28;20051;-76
2022/01/22 10:13:45;;;;;;;12.63;2.10;;;6.40;99.90;;;;;;5100858;28;20071;-75
2022/01/22 10:16:11;;;;;;;9.00;1.67;;;6.40;99.90;;;;;;5118574;28;20051;-74
2022/01/22 10:18:37;;;;;;;13.00;2.00;;;6.40;99.90;;;;;;5119705;28;20088;-74
2022/01/22 10:21:12;;;;;;;13.80;2.08;;;6.50;99.90;;;;;;5120271;28;20510;-75
2022/01/22 10:23:41;;;;;;;13.10;2.00;;;6.50;99.90;;;;;;5104491;28;20043;-76
2022/01/22 10:26:14;;;;;;;19.50;2.38;;;6.50;99.90;;;;;;5121571;28;20048;-75
2022/01/22 10:28:47;;;;;;;16.52;2.40;;;6.50;99.90;;;;;;5106166;28;20058;-75
2022/01/22 10:31:24;;;;;;;12.30;2.58;;;6.50;99.90;;;;;;5122934;28;20051;-75
2022/01/22 10:34:12;;;;;;;10.32;2.53;;;6.50;99.90;;;;;;5121736;28;20047;-75
2022/01/22 10:36:39;;;;;;;17.20;2.80;;;6.60;99.90;;;;;;5119640;28;20059;-75
2022/01/22 10:39:08;;;;;;;;;;;6.60;99.90;;;;;;5083558;28;20147;-74
2022/01/22 10:41:38;;;;;;;18.58;2.80;;;6.60;99.90;;;;;;5107028;28;19920;-75
2022/01/22 10:44:07;;;;;;;16.25;2.95;;;6.60;99.90;;;;;;5094675;28;20047;-75
2022/01/22 10:47:02;;;;;;;15.80;2.80;;;6.60;99.90;;;;;;5123845;28;20148;-74
2022/01/22 10:49:28;;;;;;;11.90;2.50;;;6.70;99.90;;;;;;5123925;28;20039;-76
2022/01/22 10:52:00;;;;;;;14.80;2.80;;;6.80;99.90;;;;;;5120760;28;20062;-75
2022/01/22 10:54:28;;;;;;;16.10;2.88;;;6.80;99.90;;;;;;5101070;28;20281;-75
2022/01/22 10:57:08;;;;;;;16.42;2.80;;;6.80;99.90;;;;;;5118802;28;20079;-74
2022/01/22 10:59:33;;;;;;;16.73;2.85;;;6.80;99.90;;;;;;5120325;28;20047;-75
2022/01/22 11:02:00;;;;;;;17.35;2.85;;;6.80;99.90;;;;;;5104096;28;20549;-75
2022/01/22 11:04:28;;;;;;;15.05;2.60;;;6.80;99.90;;;;;;5103569;28;20396;-75
2022/01/22 11:06:58;;;;;;;18.63;2.90;;;6.80;99.90;;;;;;5103766;28;20058;-75
2022/01/22 11:09:27;;;;;;;19.00;2.45;;;6.80;99.90;;;;;;5104218;28;20051;-74
2022/01/22 11:11:53;;;;;;;19.75;2.78;;;6.80;99.90;;;;;;5103670;28;20333;-76
2022/01/22 11:14:19;;;;;;;13.45;3.17;;;6.80;99.90;;;;;;5107335;28;20048;-76
2022/01/22 11:16:48;;;;;;;22.38;5.18;;;6.80;99.90;;;;;;5124445;28;20044;-75
2022/01/22 11:19:24;;;;;;;17.30;3.35;;;6.80;99.90;;;;;;5105128;28;20055;-74
2022/01/22 11:21:52;;;;;;;12.90;3.22;;;6.90;99.90;;;;;;5105354;28;20043;-75
2022/01/22 11:24:23;;;;;;;13.85;2.88;;;6.90;99.90;;;;;;5105883;28;20131;-75
2022/01/22 11:26:52;;;;;;;23.30;3.33;;;6.90;99.90;;;;;;5124173;28;20102;-77
2022/01/22 11:29:25;;;;;;;18.23;3.15;;;6.80;99.90;;;;;;5123994;28;20234;-76
2022/01/22 11:31:53;;;;;;;18.25;2.85;;;6.80;99.90;;;;;;5125070;28;20055;-76
2022/01/22 11:34:23;;;;;;;18.00;3.10;;;6.80;99.90;;;;;;5092633;28;20071;-77
2022/01/22 11:37:01;;;;;;;15.20;3.28;;;6.70;99.90;;;;;;5111881;28;20061;-77
2022/01/22 11:39:28;;;;;;;20.88;3.47;;;6.60;99.90;;;;;;5111468;28;20084;-76
2022/01/22 11:41:58;;;;;;;18.23;3.67;;;6.60;99.90;;;;;;5131216;28;20062;-75
2022/01/22 11:44:25;;;;;;;17.83;4.45;;;6.60;99.90;;;;;;5115273;28;20100;-76
2022/01/22 11:47:10;;;;;;;23.90;3.80;;;6.60;99.90;;;;;;5131647;28;20077;-78
2022/01/22 11:49:37;;;;;;;16.35;4.32;;;6.60;99.90;;;;;;5113780;28;20391;-75
2022/01/22 11:52:08;;;;;;;23.05;4.47;;;6.60;99.90;;;;;;5133314;28;20135;-76
2022/01/22 11:55:22;;;;;;;18.00;4.35;;;6.70;99.90;;;;;;5113826;28;20040;-76
2022/01/22 11:57:53;;;;;;;23.02;4.28;;;6.70;99.90;;;;;;5095507;28;20060;-78
2022/01/22 12:00:27;;;;;;;31.67;5.57;;;6.80;99.90;;;;;;5131270;28;20089;-77
2022/01/22 12:03:08;;;;;;;25.77;5.97;;;6.70;99.90;;;;;;5093567;28;20047;-79
2022/01/22 12:05:54;;;;;;;24.08;6.10;;;6.80;99.90;;;;;;5129618;28;20047;-80
2022/01/22 12:08:21;;;;;;;26.95;6.07;;;6.80;99.90;;;;;;5119349;28;20043;-78
2022/01/22 12:16:50;;;;;;;21.10;5.35;;;6.80;99.90;;;;;;5137479;28;20039;-77
2022/01/22 12:19:48;;;;;;;21.15;5.53;;;7.00;99.90;;;;;;5116278;28;20436;-77
2022/01/22 12:22:30;;;;;;;22.15;4.63;;;7.00;99.90;;;;;;5116248;28;20047;-77
2022/01/22 12:24:57;;;;;;;20.80;4.95;;;7.00;99.90;;;;;;5122035;28;20417;-80
2022/01/22 12:27:46;;;;;;;19.25;4.70;;;7.00;99.90;;;;;;5119693;28;20127;-78
2022/01/22 12:30:14;;;;;;;22.50;3.75;;;7.00;99.90;;;;;;5102307;28;20101;-79
2022/01/22 12:32:48;;;;;;;27.27;4.10;;;7.00;99.90;;;;;;5083603;28;20134;-77
2022/01/22 12:35:33;;;;;;;13.52;3.60;;;7.00;99.90;;;;;;5116295;28;20048;-77
2022/01/22 12:38:21;;;;;;;17.00;3.45;;;7.00;99.90;;;;;;5097450;28;20044;-79
2022/01/22 12:40:52;;;;;;;19.17;3.60;;;6.90;99.90;;;;;;5106149;28;20083;-78
2022/01/22 12:43:30;;;;;;;14.02;3.70;;;6.90;99.90;;;;;;5118967;28;20607;-77
2022/01/22 12:46:04;;;;;;;13.00;3.47;;;6.80;99.90;;;;;;5120355;28;20051;-79
2022/01/22 12:48:40;;;;;;;23.23;4.70;;;6.80;99.90;;;;;;5120616;28;20138;-78
2022/01/22 12:51:08;;;;;;;21.88;4.10;;;6.90;99.90;;;;;;5086102;28;20055;-77
2022/01/22 12:53:36;;;;;;;19.90;4.35;;;6.90;99.90;;;;;;5119935;28;20089;-77
2022/01/22 12:58:38;;;;;;;15.20;3.90;;;6.80;99.90;;;;;;5119572;28;20058;-76
2022/01/22 13:01:10;;;;;;;20.42;5.30;;;6.80;99.90;;;;;;5101341;28;20039;-77
2022/01/22 13:03:40;;;;;;;23.63;3.97;;;6.80;99.90;;;;;;5101889;28;20059;-77
2022/01/22 13:06:06;;;;;;;16.23;4.20;;;6.80;99.90;;;;;;5101131;28;20074;-78
2022/01/22 13:08:33;;;;;;;17.80;4.78;;;6.90;99.90;;;;;;5119007;28;20130;-77
2022/01/22 13:11:01;;;;;;;15.77;3.92;;;6.90;99.90;;;;;;5103507;28;20124;-78
2022/01/22 13:13:29;;;;;;;16.33;3.35;;;6.90;99.90;;;;;;5100694;28;20054;-78
2022/01/22 13:16:05;;;;;;;18.50;3.40;;;6.90;99.90;;;;;;5119767;28;20052;-78
2022/01/22 13:18:58;;;;;;;18.15;3.60;;;6.90;99.90;;;;;;5104920;28;20051;-78
2022/01/22 13:21:32;;;;;;;15.65;3.88;;;6.90;99.90;;;;;;5118493;28;20060;-77
2022/01/22 13:24:10;;;;;;;19.27;4.45;;;6.90;99.90;;;;;;5103870;28;20050;-78
2022/01/22 13:26:45;;;;;;;14.75;3.47;;;6.90;99.90;;;;;;5122105;28;20058;-78
2022/01/22 13:29:24;;;;;;;18.42;3.58;;;6.90;99.90;;;;;;5086684;28;20044;-78
2022/01/22 13:32:06;;;;;;;17.33;2.97;;;6.90;99.90;;;;;;5105243;28;20040;-78
2022/01/22 13:34:50;;;;;;;11.20;3.17;;;6.90;99.90;;;;;;5121733;28;20130;-76
2022/01/22 13:47:44;;;;;;;18.70;3.60;;;7.00;99.90;;;;;;5125211;28;20058;-78
2022/01/22 13:48:45;;;;;;;13.23;2.63;;;7.00;99.90;;;;;;5107517;28;20052;-79
2022/01/22 13:51:12;;;;;;;11.90;2.70;;;7.00;99.90;;;;;;5060070;28;20306;-80
2022/01/22 13:53:39;;;;;;;16.42;2.40;;;7.00;99.90;;;;;;5119870;28;20051;-77
2022/01/22 13:56:12;;;;;;;10.00;2.63;;;7.00;99.90;;;;;;5085584;28;20051;-78
2022/01/22 13:58:38;;;;;;;18.52;2.45;;;6.90;99.90;;;;;;5102165;28;20101;-76
2022/01/22 14:01:40;;;;;;;14.43;1.98;;;7.00;99.90;;;;;;5121620;28;20047;-78
2022/01/22 14:04:08;;;;;;;15.63;2.58;;;7.00;99.90;;;;;;5106088;28;20072;-78
2022/01/22 14:06:34;;;;;;;15.32;2.08;;;6.90;99.90;;;;;;5090541;28;20475;-78
2022/01/22 14:09:18;;;;;;;15.80;2.25;;;6.90;99.90;;;;;;5089855;28;20056;-78
2022/01/22 14:12:09;;;;;;;13.45;2.50;;;6.90;99.90;;;;;;5087997;28;20043;-77
2022/01/22 14:15:16;;;;;;;10.80;2.60;;;6.90;99.90;;;;;;5104395;28;20043;-77
2022/01/22 14:20:39;;;;;;;16.65;3.35;;;6.90;99.90;;;;;;5123676;28;20048;-77
2022/01/22 14:23:18;;;;;;;11.90;2.60;;;6.90;99.90;;;;;;5105391;28;20039;-78
2022/01/22 14:25:58;;;;;;;14.35;2.22;;;6.90;99.90;;;;;;5104738;28;20143;-78
2022/01/22 14:28:42;;;;;;;11.65;1.83;;;6.80;99.90;;;;;;5123838;28;20044;-76
2022/01/22 14:31:34;;;;;;;13.13;2.10;;;6.80;99.90;;;;;;5123735;28;20060;-78
2022/01/22 14:34:06;;;;;;;9.85;2.15;;;6.80;99.90;;;;;;5123524;28;20047;-77
2022/01/22 14:36:39;;;;;;;9.35;1.80;;;6.80;99.90;;;;;;5122751;28;20066;-78
2022/01/22 14:43:47;;;;;;;11.57;2.50;;;6.70;99.90;;;;;;5122217;28;20055;-77
2022/01/22 14:45:07;;;;;;;9.57;2.00;;;6.70;99.90;;;;;;5070699;28;20098;-78
2022/01/22 14:47:33;;;;;;;17.83;2.00;;;6.70;99.90;;;;;;5126694;28;20055;-76
2022/01/22 14:50:10;;;;;;;14.55;1.70;;;6.60;99.90;;;;;;5108826;28;20044;-77
2022/01/22 14:52:36;;;;;;;9.30;1.30;;;6.60;99.90;;;;;;5108010;28;20140;-77
2022/01/22 14:55:05;;;;;;;7.55;1.35;;;6.60;99.90;;;;;;5108520;28;20044;-78
2022/01/22 14:57:34;;;;;;;12.52;1.20;;;6.60;99.90;;;;;;5107679;28;20073;-78
2022/01/22 15:00:06;;;;;;;8.43;1.30;;;6.60;99.90;;;;;;5107171;28;20392;-78
2022/01/22 15:02:34;;;;;;;7.57;0.98;;;6.60;99.90;;;;;;5090288;28;20051;-78
2022/01/22 15:05:00;;;;;;;10.93;1.17;;;6.60;99.90;;;;;;5125193;28;20044;-79
2022/01/22 15:07:25;;;;;;;12.40;1.00;;;6.60;99.90;;;;;;5106494;28;20050;-79
2022/01/22 15:09:51;;;;;;;13.30;1.20;;;6.60;99.90;;;;;;5089708;28;20039;-78
2022/01/22 15:12:18;;;;;;;9.10;1.00;;;6.60;99.90;;;;;;5124781;28;20484;-78